Time;durP1;ratioP1;P1;durP2;ratioP2;P2;SDS_P1;SDS_P2;PMS_P1;PMS_P2;Temp;Humidity;BMP_temperature;BMP_pressure;BME280_temperature;BME280_humidity;BME280_pressure;Samples;Min_cycle;Max_cycle;Signal;HPM_P1;HPM_P2
2022/04/18 00:01:37;;;;;;;;;;;14.20;99.90;;;;;;5055721;28;19912;-76
2022/04/18 00:04:02;;;;;;;;;;;14.10;99.90;;;;;;5055577;28;19905;-77
2022/04/18 00:06:28;;;;;;;;;;;14.10;99.90;;;;;;5055450;28;20281;-76
2022/04/18 00:08:53;;;;;;;;;;;14.20;99.90;;;;;;5055713;28;19905;-77
2022/04/18 00:11:20;;;;;;;;;;;14.10;99.90;;;;;;5054083;28;20275;-76
2022/04/18 00:13:45;;;;;;;;;;;14.10;99.90;;;;;;5055394;28;19905;-77
2022/04/18 00:16:11;;;;;;;;;;;14.10;99.90;;;;;;5055536;28;20403;-76
2022/04/18 00:18:36;;;;;;;;;;;14.10;99.90;;;;;;5054948;28;19905;-77
2022/04/18 00:21:02;;;;;;;;;;;14.20;99.90;;;;;;5055339;28;19904;-75
2022/04/18 00:23:28;;;;;;;;;;;14.20;99.90;;;;;;5055185;28;19909;-77
2022/04/18 00:25:53;;;;;;;;;;;14.20;99.90;;;;;;5055154;28;19912;-76
2022/04/18 00:28:19;;;;;;;;;;;14.30;99.90;;;;;;5055030;28;20348;-76
2022/04/18 00:30:44;;;;;;;;;;;14.20;99.90;;;;;;5055174;28;19955;-76
2022/04/18 00:33:10;;;;;;;;;;;14.30;99.90;;;;;;5055097;28;19926;-77
2022/04/18 00:35:36;;;;;;;;;;;14.40;99.90;;;;;;5053474;28;20351;-78
2022/04/18 00:38:01;;;;;;;;;;;14.40;99.90;;;;;;5053617;28;19905;-75
2022/04/18 00:40:27;;;;;;;;;;;14.50;99.90;;;;;;5054885;28;19905;-78
2022/04/18 00:43:00;;;;;;;;;;;14.60;99.90;;;;;;5054844;28;19904;-77
2022/04/18 00:45:26;;;;;;;;;;;14.60;99.90;;;;;;5054831;28;19996;-77
2022/04/18 00:47:52;;;;;;;;;;;14.70;99.90;;;;;;5055177;28;19995;-77
2022/04/18 00:50:17;;;;;;;;;;;14.60;99.90;;;;;;5054688;28;19905;-76
2022/04/18 00:52:43;;;;;;;;;;;14.50;99.90;;;;;;5054741;28;19908;-76
2022/04/18 00:55:10;;;;;;;;;;;14.50;99.90;;;;;;5054625;28;20373;-77
2022/04/18 00:57:36;;;;;;;;;;;14.50;99.90;;;;;;5054527;28;19907;-75
2022/04/18 01:00:03;;;;;;;;;;;14.40;99.90;;;;;;5054674;28;19912;-75
2022/04/18 01:02:28;;;;;;;;;;;14.40;99.90;;;;;;5054774;28;19904;-77
2022/04/18 01:04:54;;;;;;;;;;;14.40;99.90;;;;;;5054418;28;20250;-76
2022/04/18 01:07:20;;;;;;;;;;;14.30;99.90;;;;;;5054414;28;19909;-76
2022/04/18 01:09:46;;;;;;;;;;;14.20;99.90;;;;;;5054239;28;19947;-76
2022/04/18 01:12:12;;;;;;;;;;;14.30;99.90;;;;;;5054669;28;19981;-77
2022/04/18 01:14:37;;;;;;;;;;;14.20;99.90;;;;;;5052942;28;19952;-78
2022/04/18 01:17:03;;;;;;;;;;;13.90;99.90;;;;;;5054462;28;19968;-77
2022/04/18 01:19:28;;;;;;;;;;;13.80;99.90;;;;;;5054103;28;19911;-76
2022/04/18 01:21:54;;;;;;;;;;;13.70;99.90;;;;;;5052849;28;19909;-76
2022/04/18 01:29:49;;;;;;;;;;;13.50;99.90;;;;;;5053408;28;19958;-76
2022/04/18 01:32:15;;;;;;;;;;;13.50;99.90;;;;;;5053647;28;19905;-78
2022/04/18 01:34:40;;;;;;;;;;;13.50;99.90;;;;;;5053987;28;19905;-77
2022/04/18 01:37:06;;;;;;;;;;;13.60;99.90;;;;;;5054006;28;19950;-76
2022/04/18 01:39:31;;;;;;;;;;;13.60;99.90;;;;;;5053860;28;19911;-76
2022/04/18 01:41:57;;;;;;;;;;;13.60;99.90;;;;;;5053751;28;19905;-76
2022/04/18 01:44:22;;;;;;;;;;;13.50;99.90;;;;;;5052439;28;20422;-76
2022/04/18 01:46:48;;;;;;;;;;;13.40;99.90;;;;;;5053666;28;19912;-75
2022/04/18 01:49:13;;;;;;;;;;;13.30;99.90;;;;;;5053643;28;19958;-77
2022/04/18 01:51:39;;;;;;;;;;;13.30;99.90;;;;;;5052314;28;20288;-76
2022/04/18 01:54:05;;;;;;;;;;;13.20;99.90;;;;;;5053741;28;19986;-77
2022/04/18 01:56:30;;;;;;;;;;;13.30;99.90;;;;;;5053606;28;20384;-75
2022/04/18 01:58:56;;;;;;;;;;;13.40;99.90;;;;;;5053598;28;19948;-77
2022/04/18 02:01:21;;;;;;;;;;;13.30;99.90;;;;;;5053498;28;19993;-77
2022/04/18 02:03:47;;;;;;;;;;;13.00;99.90;;;;;;5053512;28;19911;-76
2022/04/18 02:06:13;;;;;;;;;;;13.00;99.90;;;;;;5052195;28;20331;-78
2022/04/18 02:08:38;;;;;;;;;;;13.10;99.90;;;;;;5052092;28;19908;-76
2022/04/18 02:11:05;;;;;;;;;;;13.10;99.90;;;;;;5052093;28;19924;-76
2022/04/18 02:13:30;;;;;;;;;;;13.00;99.90;;;;;;5053455;28;19962;-75
2022/04/18 02:15:57;;;;;;;;;;;13.00;99.90;;;;;;5053490;28;19905;-78
2022/04/18 02:18:23;;;;;;;;;;;12.90;99.90;;;;;;5053374;28;20308;-77
2022/04/18 02:20:49;;;;;;;;;;;12.90;99.90;;;;;;5053290;28;19999;-77
2022/04/18 02:23:14;;;;;;;;;;;13.00;99.90;;;;;;5053386;28;20361;-76
2022/04/18 02:25:40;;;;;;;;;;;13.30;99.90;;;;;;5053217;28;20285;-74
2022/04/18 02:28:06;;;;;;;;;;;13.60;99.90;;;;;;5053179;28;20198;-77
2022/04/18 02:30:32;;;;;;;;;;;13.70;99.90;;;;;;5053182;28;19905;-77
2022/04/18 02:32:59;;;;;;;;;;;13.80;99.90;;;;;;5053567;28;19905;-76
2022/04/18 02:35:25;;;;;;;;;;;13.90;99.90;;;;;;5051686;28;19928;-76
2022/04/18 02:37:51;;;;;;;;;;;13.90;99.90;;;;;;5053186;28;20428;-77
2022/04/18 02:40:17;;;;;;;;;;;13.70;99.90;;;;;;5051829;28;19950;-77
2022/04/18 02:42:43;;;;;;;;;;;13.60;99.90;;;;;;5055486;28;19943;-77
2022/04/18 02:45:09;;;;;;;;;;;13.60;99.90;;;;;;5057080;28;19960;-76
2022/04/18 02:47:35;;;;;;;;;;;13.50;99.90;;;;;;5057096;28;19999;-76
2022/04/18 02:50:01;;;;;;;;;;;13.50;99.90;;;;;;5056926;28;19947;-76
2022/04/18 02:52:26;;;;;;;;;;;13.40;99.90;;;;;;5055641;28;19905;-75
2022/04/18 02:54:52;;;;;;;;;;;13.50;99.90;;;;;;5057169;28;19905;-77
2022/04/18 02:57:17;;;;;;;;;;;13.50;99.90;;;;;;5056790;28;19905;-76
2022/04/18 02:59:43;;;;;;;;;;;13.60;99.90;;;;;;5056819;28;20000;-76
2022/04/18 03:02:09;;;;;;;;;;;13.70;99.90;;;;;;5055408;28;20357;-77
2022/04/18 03:04:34;;;;;;;;;;;13.80;99.90;;;;;;5056624;28;19951;-78
2022/04/18 03:07:01;;;;;;;;;;;13.90;99.90;;;;;;5056575;28;20283;-78
2022/04/18 03:09:26;;;;;;;;;;;13.90;99.90;;;;;;5055239;28;20384;-78
2022/04/18 03:11:52;;;;;;;;;;;14.00;99.90;;;;;;5056486;28;19936;-78
2022/04/18 03:14:17;;;;;;;;;;;14.00;99.90;;;;;;5056877;28;19951;-75
2022/04/18 03:16:43;;;;;;;;;;;13.80;99.90;;;;;;5056621;28;19909;-76
2022/04/18 03:19:08;;;;;;;;;;;13.90;99.90;;;;;;5056569;28;19905;-76
2022/04/18 03:21:34;;;;;;;;;;;13.80;99.90;;;;;;5056350;28;19908;-75
2022/04/18 03:24:00;;;;;;;;;;;14.00;99.90;;;;;;5056299;28;19905;-76
2022/04/18 03:26:25;;;;;;;;;;;14.20;99.90;;;;;;5056216;28;19940;-76
2022/04/18 03:28:51;;;;;;;;;;;14.20;99.90;;;;;;5056498;28;19958;-77
2022/04/18 03:31:16;;;;;;;;;;;14.00;99.90;;;;;;5056172;28;19926;-76
2022/04/18 03:33:42;;;;;;;;;;;14.00;99.90;;;;;;5054814;28;19904;-76
2022/04/18 03:41:36;;;;;;;;;;;14.20;99.90;;;;;;5056070;28;19966;-76
2022/04/18 03:44:01;;;;;;;;;;;14.30;99.90;;;;;;5055969;28;19913;-77
2022/04/18 03:46:27;;;;;;;;;;;14.10;99.90;;;;;;5055917;28;20399;-76
2022/04/18 03:48:53;;;;;;;;;;;13.90;99.90;;;;;;5055863;28;19909;-77
2022/04/18 03:51:18;;;;;;;;;;;14.00;99.90;;;;;;5055765;28;19912;-76
2022/04/18 03:53:44;;;;;;;;;;;14.10;99.90;;;;;;5054791;28;19908;-77
2022/04/18 03:56:09;;;;;;;;;;;14.30;99.90;;;;;;5055687;28;20385;-75
2022/04/18 03:58:35;;;;;;;;;;;14.40;99.90;;;;;;5055687;28;19905;-76
2022/04/18 04:01:00;;;;;;;;;;;14.50;99.90;;;;;;5056205;28;19904;-77
2022/04/18 04:03:26;;;;;;;;;;;14.30;99.90;;;;;;5055589;28;19950;-76
2022/04/18 04:05:53;;;;;;;;;;;14.30;99.90;;;;;;5055482;28;19905;-77
2022/04/18 04:08:22;;;;;;;;;;;14.40;99.90;;;;;;5055605;28;19915;-77
2022/04/18 04:10:49;;;;;;;;;;;14.40;99.90;;;;;;5054096;28;19912;-75
2022/04/18 04:13:15;;;;;;;;;;;14.30;99.90;;;;;;5054092;28;19948;-76
2022/04/18 04:15:40;;;;;;;;;;;14.20;99.90;;;;;;5055438;28;19954;-76
2022/04/18 04:18:06;;;;;;;;;;;14.20;99.90;;;;;;5054022;28;19905;-74
2022/04/18 04:20:31;;;;;;;;;;;14.30;99.90;;;;;;5055423;28;19966;-77
2022/04/18 04:22:57;;;;;;;;;;;14.40;99.90;;;;;;5055228;28;20324;-76
2022/04/18 04:25:23;;;;;;;;;;;14.30;99.90;;;;;;5055693;28;19963;-76
2022/04/18 04:27:48;;;;;;;;;;;14.20;99.90;;;;;;5054689;28;20379;-76
2022/04/18 04:30:14;;;;;;;;;;;14.10;99.90;;;;;;5053768;28;19916;-76
2022/04/18 04:32:39;;;;;;;;;;;14.20;99.90;;;;;;5055142;28;19911;-77
2022/04/18 04:35:05;;;;;;;;;;;14.00;99.90;;;;;;5055169;28;19916;-76
2022/04/18 04:37:31;;;;;;;;;;;14.20;99.90;;;;;;5053681;28;19909;-76
2022/04/18 04:39:56;;;;;;;;;;;14.00;99.90;;;;;;5054263;28;19909;-76
2022/04/18 04:42:22;;;;;;;;;;;14.10;99.90;;;;;;5054855;28;19991;-77
2022/04/18 04:44:47;;;;;;;;;;;14.10;99.90;;;;;;5053505;28;19905;-77
2022/04/18 04:47:13;;;;;;;;;;;14.30;99.90;;;;;;5054882;28;19932;-78
2022/04/18 04:49:39;;;;;;;;;;;14.20;99.90;;;;;;5054710;28;19909;-76
2022/04/18 04:52:05;;;;;;;;;;;14.20;99.90;;;;;;5054871;28;20349;-77
2022/04/18 04:54:37;;;;;;;;;;;14.10;99.90;;;;;;5053368;28;19912;-77
2022/04/18 04:57:03;;;;;;;;;;;14.10;99.90;;;;;;5054534;28;19958;-77
2022/04/18 04:59:28;;;;;;;;;;;13.90;99.90;;;;;;5054676;28;19909;-76
2022/04/18 05:01:54;;;;;;;;;;;13.90;99.90;;;;;;5054441;28;20266;-77
2022/04/18 05:04:19;;;;;;;;;;;13.90;99.90;;;;;;5052963;28;20372;-75
2022/04/18 05:06:45;;;;;;;;;;;13.90;99.90;;;;;;5054611;28;19995;-77
2022/04/18 05:09:11;;;;;;;;;;;13.90;99.90;;;;;;5054465;28;20343;-76
2022/04/18 05:11:36;;;;;;;;;;;13.90;99.90;;;;;;5054194;28;19904;-74
2022/04/18 05:14:02;;;;;;;;;;;14.00;99.90;;;;;;5054274;28;19913;-77
2022/04/18 05:16:27;;;;;;;;;;;14.10;99.90;;;;;;5054181;28;19909;-77
2022/04/18 05:18:53;;;;;;;;;;;14.10;99.90;;;;;;5054165;28;20384;-77
2022/04/18 05:21:19;;;;;;;;;;;14.10;99.90;;;;;;5052800;28;20360;-76
2022/04/18 05:23:44;;;;;;;;;;;14.00;99.90;;;;;;5054030;28;19909;-76
2022/04/18 05:26:10;;;;;;;;;;;14.10;99.90;;;;;;5054059;28;19948;-77
2022/04/18 05:28:35;;;;;;;;;;;14.10;99.90;;;;;;5052623;28;19908;-77
2022/04/18 05:31:01;;;;;;;;;;;14.20;99.90;;;;;;5054276;28;19911;-77
2022/04/18 05:33:27;;;;;;;;;;;14.40;99.90;;;;;;5053970;28;19905;-76
2022/04/18 05:35:52;;;;;;;;;;;14.30;99.90;;;;;;5053750;28;19927;-76
2022/04/18 05:38:18;;;;;;;;;;;14.40;99.90;;;;;;5054122;28;19904;-76
2022/04/18 05:40:44;;;;;;;;;;;14.40;99.90;;;;;;5053767;28;19911;-77
2022/04/18 05:43:09;;;;;;;;;;;14.40;99.90;;;;;;5053802;28;19955;-76
2022/04/18 05:45:38;;;;;;;;;;;14.40;99.90;;;;;;5053678;28;19909;-78
2022/04/18 05:48:04;;;;;;;;;;;14.40;99.90;;;;;;5053529;28;19909;-76
2022/04/18 05:50:30;;;;;;;;;;;14.40;99.90;;;;;;5053905;28;19909;-78
2022/04/18 05:52:56;;;;;;;;;;;14.50;99.90;;;;;;5052317;28;20003;-75
2022/04/18 05:55:22;;;;;;;;;;;14.70;99.90;;;;;;5052250;28;19904;-77
2022/04/18 05:57:49;;;;;;;;;;;14.70;99.90;;;;;;5053460;28;19912;-76
2022/04/18 06:00:15;;;;;;;;;;;14.70;99.90;;;;;;5053713;28;20396;-76
2022/04/18 06:02:41;;;;;;;;;;;14.80;99.90;;;;;;5053478;28;19905;-79
2022/04/18 06:05:07;;;;;;;;;;;14.90;99.90;;;;;;5054061;28;19904;-78
2022/04/18 06:07:34;;;;;;;;;;;15.00;99.90;;;;;;5052147;28;19915;-77
2022/04/18 06:10:00;;;;;;;;;;;14.90;99.90;;;;;;5053429;28;19911;-79
2022/04/18 06:12:26;;;;;;;;;;;14.90;99.90;;;;;;5053458;28;19909;-77
2022/04/18 06:14:52;;;;;;;;;;;14.90;99.90;;;;;;5052134;28;20000;-78
2022/04/18 06:17:17;;;;;;;;;;;15.10;99.90;;;;;;5055168;28;19995;-77
2022/04/18 06:19:43;;;;;;;;;;;15.00;99.90;;;;;;5057575;28;19904;-77
2022/04/18 06:22:09;;;;;;;;;;;15.20;99.90;;;;;;5056259;28;19912;-78
2022/04/18 06:24:34;;;;;;;;;;;15.40;99.90;;;;;;5057930;28;19916;-77
2022/04/18 06:27:00;;;;;;;;;;;15.40;99.90;;;;;;5057482;28;19905;-78
2022/04/18 06:29:26;;;;;;;;;;;15.40;99.90;;;;;;5057487;28;19904;-78
2022/04/18 06:31:53;;;;;;;;;;;15.30;99.90;;;;;;5057340;28;19911;-77
2022/04/18 06:34:19;;;;;;;;;;;15.20;99.90;;;;;;5057313;28;19988;-79
2022/04/18 06:36:45;;;;;;;;;;;15.10;99.90;;;;;;5057078;28;19921;-77
2022/04/18 06:39:10;;;;;;;;;;;15.10;99.90;;;;;;5057182;28;19912;-77
2022/04/18 06:41:36;;;;;;;;;;;15.20;99.90;;;;;;5057302;28;20293;-78
2022/04/18 06:44:02;;;;;;;;;;;15.20;99.90;;;;;;5057122;28;19983;-79
2022/04/18 06:46:27;;;;;;;;;;;15.40;99.90;;;;;;5057059;28;19995;-78
2022/04/18 06:48:53;;;;;;;;;;;15.60;99.90;;;;;;5055511;28;19916;-79
2022/04/18 06:51:19;;;;;;;;;;;15.50;99.90;;;;;;5055678;28;19905;-78
2022/04/18 06:53:44;;;;;;;;;;;15.50;99.90;;;;;;5057109;28;19971;-77
2022/04/18 06:58:54;;;;;;;;;;;15.50;99.90;;;;;;5056820;28;19937;-79
2022/04/18 07:01:19;;;;;;;;;;;15.50;99.90;;;;;;5055538;28;20335;-78
2022/04/18 07:03:45;;;;;;;;;;;15.70;99.90;;;;;;5056761;28;19912;-77
2022/04/18 07:06:11;;;;;;;;;;;15.70;99.90;;;;;;5055414;28;19955;-78
2022/04/18 07:08:37;;;;;;;;;;;15.90;99.90;;;;;;5056536;28;20360;-77
2022/04/18 07:11:03;;;;;;;;;;;16.00;99.90;;;;;;5056695;28;19911;-78
2022/04/18 07:13:28;;;;;;;;;;;15.90;99.90;;;;;;5055293;28;19905;-77
2022/04/18 07:15:54;;;;;;;;;;;15.70;99.90;;;;;;5056591;28;19904;-78
2022/04/18 07:18:20;;;;;;;;;;;15.80;99.90;;;;;;5055108;28;19947;-78
2022/04/18 07:20:45;;;;;;;;;;;15.90;99.90;;;;;;5056446;28;19905;-79
2022/04/18 07:23:11;;;;;;;;;;;15.90;99.90;;;;;;5055111;28;19905;-76
2022/04/18 07:25:37;;;;;;;;;;;16.10;99.90;;;;;;5056341;28;20315;-79
2022/04/18 07:28:03;;;;;;;;;;;16.10;99.90;;;;;;5056336;28;19909;-79
2022/04/18 07:30:30;;;;;;;;;;;16.20;99.90;;;;;;5054964;28;19905;-78
2022/04/18 07:32:56;;;;;;;;;;;16.30;99.90;;;;;;5056244;28;19904;-77
2022/04/18 07:35:22;;;;;;;;;;;16.60;99.90;;;;;;5056014;28;20003;-78
2022/04/18 07:40:31;;;;;;;;;;;17.00;99.90;;;;;;5055829;28;19912;-78
2022/04/18 07:42:57;;;;;;;;;;;17.10;99.90;;;;;;5054718;28;19909;-78
2022/04/18 07:45:22;;;;;;;;;;;17.30;99.90;;;;;;5056014;28;19905;-78
2022/04/18 07:47:50;;;;;;;;;;;17.20;99.90;;;;;;5055945;28;19947;-78
2022/04/18 07:50:15;;;;;;;;;;;17.20;99.90;;;;;;5056156;28;19991;-79
2022/04/18 07:52:41;;;;;;;;;;;17.00;99.90;;;;;;5055654;28;19948;-78
2022/04/18 07:55:07;;;;;;;;;;;17.00;99.90;;;;;;5054563;28;19912;-78
2022/04/18 07:57:32;;;;;;;;;;;16.90;99.90;;;;;;5055844;28;19911;-78
2022/04/18 07:59:58;;;;;;;;;;;16.60;99.90;;;;;;5055754;28;19912;-77
2022/04/18 08:02:24;;;;;;;;;;;16.60;99.90;;;;;;5055717;28;20348;-78
2022/04/18 08:04:50;;;;;;;;;;;16.70;99.90;;;;;;5055673;28;19929;-78
2022/04/18 08:07:15;;;;;;;;;;;16.90;99.90;;;;;;5055545;28;20317;-78
2022/04/18 08:09:41;;;;;;;;;;;17.00;99.90;;;;;;5055649;28;20062;-77
2022/04/18 08:12:07;;;;;;;;;;;16.90;99.90;;;;;;5055464;28;19905;-77
2022/04/18 08:14:32;;;;;;;;;;;17.00;99.90;;;;;;5055495;28;20430;-79
2022/04/18 08:16:58;;;;;;;;;;;17.00;99.90;;;;;;5055437;28;19999;-77
2022/04/18 08:19:24;;;;;;;;;;;17.10;99.90;;;;;;5055551;28;19905;-77
2022/04/18 08:21:49;;;;;;;;;;;17.10;99.90;;;;;;5055426;28;19905;-77
2022/04/18 08:24:15;;;;;;;;;;;17.10;99.90;;;;;;5055309;28;19970;-78
2022/04/18 08:26:40;;;;;;;;;;;17.50;99.90;;;;;;5053921;28;20323;-77
2022/04/18 08:29:06;;;;;;;;;;;17.90;99.90;;;;;;5055232;28;19956;-78
2022/04/18 08:31:32;;;;;;;;;;;18.00;99.90;;;;;;5055148;28;19915;-76
2022/04/18 08:33:57;;;;;;;;;;;17.90;99.90;;;;;;5055085;28;19908;-77
2022/04/18 08:36:23;;;;;;;;;;;17.90;99.90;;;;;;5054664;28;19923;-77
2022/04/18 08:38:49;;;;;;;;;;;18.50;99.90;;;;;;5055011;28;20387;-78
2022/04/18 08:41:20;;;;;;;;;;;18.90;99.90;;;;;;5053179;28;19909;-79
2022/04/18 08:43:45;;;;;;;;;;;20.70;99.90;;;;;;5054972;28;19909;-78
2022/04/18 08:46:11;;;;;;;;;;;22.60;99.90;;;;;;5054944;28;19905;-78
2022/04/18 08:54:07;;;;;;;;;;;22.10;92.50;;;;;;5054991;28;19916;-77
2022/04/18 08:56:33;;;;;;;;;;;21.80;92.90;;;;;;5054940;28;19904;-78
2022/04/18 08:58:59;;;;;;;;;;;21.50;93.20;;;;;;5054683;28;19904;-78
2022/04/18 09:01:25;;;;;;;;;;;23.00;91.00;;;;;;5054580;28;19909;-78
2022/04/18 09:03:50;;;;;;;;;;;25.00;79.90;;;;;;5054565;28;19912;-79
2022/04/18 09:06:16;;;;;;;;;;;25.10;72.10;;;;;;5054767;28;20277;-79
2022/04/18 09:08:52;;;;;;;;;;;25.60;66.40;;;;;;5054482;28;19908;-80
2022/04/18 09:11:44;;;;;;;;;;;26.10;64.90;;;;;;5054318;28;20288;-78
2022/04/18 09:14:11;;;;;;;;;;;26.60;64.90;;;;;;5052364;28;20299;-78
2022/04/18 09:16:37;;;;;;;;;;;28.80;61.40;;;;;;5054320;28;19905;-79
2022/04/18 09:19:09;;;;;;;;;;;29.80;56.90;;;;;;5054251;28;19951;-79
2022/04/18 09:21:40;;;;;;;;;;;30.10;53.90;;;;;;5054249;28;19909;-79
2022/04/18 09:24:06;;;;;;;;;;;31.20;52.70;;;;;;5054319;28;19904;-79
2022/04/18 09:26:31;;;;;;;;;;;32.30;49.80;;;;;;5054176;28;19905;-80
2022/04/18 09:29:04;;;;;;;;;;;31.00;49.50;;;;;;5054058;28;19909;-79
2022/04/18 09:31:37;;;;;;;;;;;30.40;48.10;;;;;;5052770;28;19959;-80
2022/04/18 09:34:03;;;;;;;;;;;30.70;47.20;;;;;;5054217;28;19905;-79
2022/04/18 09:36:29;;;;;;;;;;;30.00;47.50;;;;;;5052283;28;19916;-79
2022/04/18 09:38:55;;;;;;;;;;;30.70;48.00;;;;;;5052646;28;20022;-80
2022/04/18 09:41:23;;;;;;;;;;;30.90;46.50;;;;;;5053926;28;19939;-78
2022/04/18 09:43:50;;;;;;;;;;;32.10;45.50;;;;;;5052645;28;19958;-78
2022/04/18 09:46:16;;;;;;;;;;;32.60;44.50;;;;;;5053940;28;20422;-76
2022/04/18 09:48:42;;;;;;;;;;;32.50;44.30;;;;;;5053681;28;19909;-78
2022/04/18 09:51:29;;;;;;;;;;;33.20;43.60;;;;;;5053095;28;19905;-78
2022/04/18 09:53:57;;;;;;;;;;;31.90;43.90;;;;;;5053696;28;19905;-75
2022/04/18 09:56:23;;;;;;;;;;;31.00;44.50;;;;;;5053668;28;19904;-77
2022/04/18 09:58:49;;;;;;;;;;;31.90;43.90;;;;;;5053755;28;19912;-76
2022/04/18 10:01:16;;;;;;;;;;;31.50;43.30;;;;;;5053469;28;19934;-75
2022/04/18 10:03:42;;;;;;;;;;;28.80;44.80;;;;;;5053920;28;19948;-76
2022/04/18 10:06:07;;;;;;;;;;;27.50;46.80;;;;;;5052216;28;19944;-76
2022/04/18 10:08:34;;;;;;;;;;;27.30;47.90;;;;;;5053577;28;19916;-75
2022/04/18 10:11:00;;;;;;;;;;;27.50;47.80;;;;;;5053492;28;19905;-76
2022/04/18 10:13:27;;;;;;;;;;;26.90;48.40;;;;;;5053518;28;19948;-78
2022/04/18 10:15:53;;;;;;;;;;;28.10;47.80;;;;;;5052215;28;19955;-80
2022/04/18 10:18:18;;;;;;;;;;;30.10;45.60;;;;;;5052251;28;19979;-79
2022/04/18 10:21:03;;;;;;;;;;;32.60;42.60;;;;;;5053604;28;19936;-80
2022/04/18 10:23:47;;;;;;;;;;;33.20;40.50;;;;;;5053249;28;19908;-77
2022/04/18 10:26:28;;;;;;;;;;;35.80;39.90;;;;;;5053459;28;20380;-76
2022/04/18 10:28:54;;;;;;;;;;;37.10;38.10;;;;;;5053228;28;19915;-78
2022/04/18 10:31:23;;;;;;;;;;;37.20;36.50;;;;;;5053310;28;19905;-78
2022/04/18 10:33:49;;;;;;;;;;;37.80;37.10;;;;;;5053302;28;20280;-78
2022/04/18 10:36:24;;;;;;;;;;;39.10;35.90;;;;;;5053131;28;19920;-76
2022/04/18 10:38:49;;;;;;;;;;;40.00;35.00;;;;;;5053392;28;19905;-75
2022/04/18 10:41:38;;;;;;;;;;;39.90;34.70;;;;;;5053693;28;19970;-76
2022/04/18 10:44:08;;;;;;;;;;;36.00;35.90;;;;;;5047611;28;19905;-78
2022/04/18 10:46:52;;;;;;;;;;;32.20;38.80;;;;;;5051912;28;20007;-75
2022/04/18 10:49:18;;;;;;;;;;;31.20;40.90;;;;;;5053365;28;19912;-74
2022/04/18 10:51:45;;;;;;;;;;;29.60;41.50;;;;;;5051935;28;20281;-76
2022/04/18 10:54:13;;;;;;;;;;;30.00;43.00;;;;;;5053058;28;19911;-77
2022/04/18 10:56:45;;;;;;;;;;;33.90;39.90;;;;;;5053117;28;19943;-76
2022/04/18 10:59:12;;;;;;;;;;;33.40;38.20;;;;;;5052898;28;19911;-75
2022/04/18 11:01:38;;;;;;;;;;;30.50;39.70;;;;;;5052870;28;19905;-76
2022/04/18 11:04:07;;;;;;;;;;;30.30;41.20;;;;;;5056073;28;19912;-76
2022/04/18 11:06:36;;;;;;;;;;;33.80;38.90;;;;;;5056811;28;19905;-77
2022/04/18 11:09:08;;;;;;;;;;;34.70;37.30;;;;;;5056614;28;19932;-75
2022/04/18 11:11:39;;;;;;;;;;;32.50;39.00;;;;;;5056885;28;19995;-75
2022/04/18 11:14:15;;;;;;;;;;;30.20;40.60;;;;;;5056723;28;19908;-79
2022/04/18 11:16:43;;;;;;;;;;;29.30;42.30;;;;;;5056637;28;19912;-79
2022/04/18 11:19:16;;;;;;;;;;;30.00;41.50;;;;;;5056485;28;19905;-79
2022/04/18 11:22:00;;;;;;;;;;;31.80;40.90;;;;;;5056864;28;19904;-79
2022/04/18 11:24:40;;;;;;;;;;;34.60;39.10;;;;;;5054820;28;20391;-76
2022/04/18 11:27:09;;;;;;;;;;;36.70;37.00;;;;;;5056268;28;20014;-76
2022/04/18 11:29:34;;;;;;;;;;;37.30;35.20;;;;;;5056295;28;19955;-76
2022/04/18 11:32:00;;;;;;;;;;;38.00;35.20;;;;;;5054953;28;19943;-77
2022/04/18 11:34:26;;;;;;;;;;;39.20;34.30;;;;;;5055996;28;19958;-76
2022/04/18 11:36:55;;;;;;;;;;;39.60;33.90;;;;;;5055995;28;19954;-76
2022/04/18 11:39:20;;;;;;;;;;;39.20;33.80;;;;;;5056087;28;19986;-76
2022/04/18 11:41:46;;;;;;;;;;;36.30;34.50;;;;;;5056082;28;19951;-77
2022/04/18 11:44:12;;;;;;;;;;;33.30;36.20;;;;;;5054622;28;20265;-76
2022/04/18 11:46:38;;;;;;;;;;;31.80;37.80;;;;;;5055885;28;19912;-75
2022/04/18 11:49:03;;;;;;;;;;;30.50;39.20;;;;;;5056052;28;20258;-76
2022/04/18 11:51:36;;;;;;;;;;;30.20;39.50;;;;;;5054426;28;20372;-77
2022/04/18 11:54:01;;;;;;;;;;;29.90;39.20;;;;;;5055739;28;19951;-75
2022/04/18 11:56:28;;;;;;;;;;;33.70;39.40;;;;;;5055821;28;20368;-77
2022/04/18 11:58:53;;;;;;;;;;;37.90;35.70;;;;;;5055797;28;20372;-76
2022/04/18 12:06:49;;;;;;;;;;;32.30;36.90;;;;;;5055314;28;19927;-75
2022/04/18 12:09:21;;;;;;;;;;;30.90;38.00;;;;;;5054076;28;19914;-76
2022/04/18 12:11:47;;;;;;;;;;;29.40;39.30;;;;;;5055376;28;19951;-76
2022/04/18 12:14:12;;;;;;;;;;;31.40;40.20;;;;;;5054955;28;19944;-76
2022/04/18 12:16:39;;;;;;;;;;;38.60;36.40;;;;;;5055244;28;19912;-76
2022/04/18 12:19:05;;;;;;;;;;;36.50;32.70;;;;;;5055381;28;19905;-76
2022/04/18 12:21:31;;;;;;;;;;;34.50;35.00;;;;;;5055298;28;19904;-78
2022/04/18 12:23:58;;;;;;;;;;;36.00;35.00;;;;;;5055519;28;19912;-75
2022/04/18 12:26:27;;;;;;;;;;;34.30;34.90;;;;;;5055057;28;19904;-77
2022/04/18 12:29:04;;;;;;;;;;;32.90;35.30;;;;;;5055103;28;19954;-76
2022/04/18 12:31:29;;;;;;;;;;;32.70;36.30;;;;;;5055802;28;19905;-77
2022/04/18 12:33:55;;;;;;;;;;;31.50;37.70;;;;;;5055407;28;19909;-77
2022/04/18 12:36:35;;;;;;;;;;;30.20;38.80;;;;;;5053381;28;19923;-76
2022/04/18 12:39:01;;;;;;;;;;;29.00;40.10;;;;;;5055515;28;19905;-78
2022/04/18 12:41:34;;;;;;;;;;;28.10;40.70;;;;;;5054866;28;19911;-78
2022/04/18 12:44:01;;;;;;;;;;;27.80;41.70;;;;;;5054937;28;19954;-78
2022/04/18 12:46:30;;;;;;;;;;;28.00;41.10;;;;;;5054947;28;19905;-78
2022/04/18 12:48:56;;;;;;;;;;;28.40;41.40;;;;;;5054815;28;19920;-78
2022/04/18 12:51:31;;;;;;;;;;;28.70;40.90;;;;;;5055024;28;19904;-78
2022/04/18 12:53:57;;;;;;;;;;;29.20;39.90;;;;;;5054799;28;19947;-79
2022/04/18 12:56:24;;;;;;;;;;;30.20;39.80;;;;;;5054848;28;19905;-78
2022/04/18 12:58:50;;;;;;;;;;;35.80;38.50;;;;;;5054639;28;20384;-81
2022/04/18 13:01:22;;;;;;;;;;;41.00;32.90;;;;;;5054878;28;19970;-76
2022/04/18 13:03:49;;;;;;;;;;;42.00;31.80;;;;;;5054568;28;20423;-76
2022/04/18 13:06:20;;;;;;;;;;;40.10;31.70;;;;;;5054563;28;19911;-76
2022/04/18 13:08:46;;;;;;;;;;;36.00;33.70;;;;;;5054382;28;19908;-75
2022/04/18 13:11:12;;;;;;;;;;;35.40;35.00;;;;;;5053050;28;19905;-75
2022/04/18 13:13:37;;;;;;;;;;;35.90;35.00;;;;;;5054629;28;19905;-77
2022/04/18 13:16:21;;;;;;;;;;;40.10;33.80;;;;;;5054357;28;19911;-76
2022/04/18 13:18:56;;;;;;;;;;;38.10;32.30;;;;;;5054258;28;19905;-76
2022/04/18 13:21:21;;;;;;;;;;;37.20;32.50;;;;;;5054423;28;19912;-76
2022/04/18 13:23:47;;;;;;;;;;;33.40;35.30;;;;;;5054087;28;19905;-76
2022/04/18 13:26:12;;;;;;;;;;;31.30;36.90;;;;;;5052609;28;19905;-76
2022/04/18 13:28:39;;;;;;;;;;;31.10;38.30;;;;;;5053971;28;19959;-76
2022/04/18 13:31:04;;;;;;;;;;;34.10;37.20;;;;;;5054229;28;19927;-76
2022/04/18 13:33:30;;;;;;;;;;;33.30;36.40;;;;;;5054346;28;20373;-76
2022/04/18 13:38:47;;;;;;;;;;;31.30;37.80;;;;;;5045034;28;19909;-76
2022/04/18 13:41:13;;;;;;;;;;;30.80;37.70;;;;;;5054046;28;19904;-75
2022/04/18 13:43:39;;;;;;;;;;;30.50;38.30;;;;;;5054093;28;19912;-76
2022/04/18 13:46:04;;;;;;;;;;;30.60;37.50;;;;;;5053854;28;19968;-74
2022/04/18 13:48:30;;;;;;;;;;;30.90;37.60;;;;;;5053688;28;20368;-75
2022/04/18 13:50:55;;;;;;;;;;;31.10;36.90;;;;;;5053661;28;20390;-75
2022/04/18 13:53:21;;;;;;;;;;;30.10;38.20;;;;;;5053677;28;19905;-75
2022/04/18 13:55:47;;;;;;;;;;;28.90;38.80;;;;;;5053739;28;19911;-78
2022/04/18 13:58:12;;;;;;;;;;;28.90;38.70;;;;;;5052434;28;19905;-78
2022/04/18 14:00:43;;;;;;;;;;;31.30;38.10;;;;;;5053659;28;19950;-78
2022/04/18 14:03:09;;;;;;;;;;;33.70;35.90;;;;;;5053613;28;20379;-79
2022/04/18 14:05:36;;;;;;;;;;;35.90;33.50;;;;;;5053796;28;19959;-78
2022/04/18 14:08:01;;;;;;;;;;;36.80;34.00;;;;;;5053484;28;19909;-75
2022/04/18 14:10:27;;;;;;;;;;;36.60;33.90;;;;;;5053449;28;19959;-76
2022/04/18 14:12:53;;;;;;;;;;;33.20;34.50;;;;;;5053490;28;19904;-76
2022/04/18 14:20:46;;;;;;;;;;;27.80;39.30;;;;;;5053219;28;20330;-75
2022/04/18 14:23:13;;;;;;;;;;;29.30;38.70;;;;;;5053357;28;19936;-76
2022/04/18 14:25:39;;;;;;;;;;;29.50;38.20;;;;;;5052137;28;20311;-77
2022/04/18 14:28:05;;;;;;;;;;;29.00;38.60;;;;;;5053279;28;19916;-75
2022/04/18 14:30:31;;;;;;;;;;;28.30;38.40;;;;;;5053368;28;19912;-78
2022/04/18 14:32:57;;;;;;;;;;;27.10;40.60;;;;;;5053603;28;19905;-78
2022/04/18 14:35:23;;;;;;;;;;;26.70;41.90;;;;;;5053540;28;20383;-77
2022/04/18 14:37:48;;;;;;;;;;;26.70;42.10;;;;;;5054231;28;19904;-78
2022/04/18 14:40:14;;;;;;;;;;;26.50;42.20;;;;;;5057347;28;19912;-78
2022/04/18 14:42:40;;;;;;;;;;;27.60;41.00;;;;;;5057332;28;19944;-77
2022/04/18 14:45:07;;;;;;;;;;;28.50;40.00;;;;;;5057221;28;19913;-78
2022/04/18 14:47:33;;;;;;;;;;;28.50;40.40;;;;;;5057494;28;20354;-78
2022/04/18 14:50:00;;;;;;;;;;;28.90;40.30;;;;;;5057406;28;19982;-78